Logan, Minnesota
Current Conditions -  °F | °C
As of 8:54 PM on Friday 21 Nov 2014 (Local Time) from KAIT Reporting Station
Clear Clear  
Wind Chill: -6°   Ceiling: Unl
Heat Index: -1°   Visibility: 10mi
Dew Point: -5°   Wind: 12mph
Humidity: 75%   Direction: 190°S
Pressure: 29.75"   Gusts: NA
Location:  46.7281°N, 93.6101°W
Report Text: KAIT 220254Z AUTO 19010KT 10SM CLR M01/M05 A2975 RMK AO2
Loading
Personal Weather Stations






























Interactive Weather Map New forecast layout! Learn more

10-Day Weather Forecast

Advertisements
Track Severe Weather on mobile